Smithboro, Illinois
Current Conditions -  °F | °C
As of 3:55 AM on Sunday 23 Nov 2014 (Local Time) from K3LF Reporting Station
Overcast Overcast  
Wind Chill: 44°   Ceiling: 11000
Heat Index: 49°   Visibility: 10mi
Dew Point: 42°   Wind: 14mph
Humidity: 77%   Direction: 160°SSE
Pressure: 29.77"   Gusts: NA
Location:  38.9°N, 89.34°W
Report Text: K3LF 230955Z AUTO 16012KT 10SM OVC110 10/06 A2977 RMK AO2 T00960058
Loading
Personal Weather Stations






























Interactive Weather Map New forecast layout! Learn more

10-Day Weather Forecast

Advertisements
Track Severe Weather on mobile